Time;durP1;ratioP1;P1;durP2;ratioP2;P2;SDS_P1;SDS_P2;PMS_P1;PMS_P2;Temp;Humidity;BMP_temperature;BMP_pressure;BME280_temperature;BME280_humidity;BME280_pressure;Samples;Min_cycle;Max_cycle;Signal;HPM_P1;HPM_P2
2021/03/04 00:02:25;;;;;;;;;28.00;25.67;;;;;25.89;68.98;99269.47;4952598;29;9071;-70
2021/03/04 00:05:12;;;;;;;;;25.00;24.00;;;;;25.91;69.19;99275.28;4951494;28;9163;-69
2021/03/04 00:07:41;;;;;;;;;27.00;26.00;;;;;25.93;69.13;99286.53;4958463;28;9172;-72
2021/03/04 00:10:14;;;;;;;;;22.67;22.67;;;;;25.93;68.07;99286.53;4959723;28;9390;-69
2021/03/04 00:12:44;;;;;;;;;22.75;20.00;;;;;25.94;66.61;99284.59;4962708;28;9153;-70
2021/03/04 00:15:15;;;;;;;;;16.75;14.00;;;;;25.96;65.35;99293.91;4960710;28;9504;-69
2021/03/04 00:17:45;;;;;;;;;16.50;16.50;;;;;25.95;65.06;99289.66;4965879;28;8926;-69
2021/03/04 00:20:18;;;;;;;;;22.33;21.00;;;;;25.95;64.84;99295.06;4973240;28;9575;-70
2021/03/04 00:22:46;;;;;;;;;22.00;21.00;;;;;25.97;65.25;99303.59;4960726;28;9096;-69
2021/03/04 00:25:17;;;;;;;;;22.33;20.00;;;;;25.91;65.91;99296.91;4957541;28;9100;-68
2021/03/04 00:27:50;;;;;;;;;23.67;19.33;;;;;25.95;65.56;99313.19;4959078;28;8995;-67
2021/03/04 00:30:20;;;;;;;;;16.50;15.25;;;;;25.93;64.73;99310.06;4965053;28;9013;-67
2021/03/04 00:32:49;;;;;;;;;28.75;22.50;;;;;25.95;65.86;99313.97;4963750;28;8864;-70
2021/03/04 00:35:17;;;;;;;;;22.00;21.00;;;;;25.97;66.78;99314.41;4963580;28;8875;-67
2021/03/04 00:37:46;;;;;;;;;22.67;21.00;;;;;25.93;65.91;99312.78;4960288;28;8955;-68
2021/03/04 00:40:18;;;;;;;;;30.33;29.00;;;;;25.99;66.52;99325.66;4962928;28;9057;-68
2021/03/04 00:42:47;;;;;;;;;30.67;24.67;;;;;26.00;68.50;99321.78;4947759;28;9195;-69
2021/03/04 00:45:18;;;;;;;;;21.33;18.33;;;;;26.05;67.08;99328.81;4954604;28;10106;-69
2021/03/04 00:48:05;;;;;;;;;22.25;19.50;;;;;26.06;66.12;99338.50;4944181;28;8933;-70
2021/03/04 00:50:35;;;;;;;;;25.33;23.67;;;;;26.09;67.34;99332.38;4955919;28;8992;-73
2021/03/04 00:53:03;;;;;;;;;32.00;29.00;;;;;26.05;67.85;99328.03;4947031;28;9211;-72
2021/03/04 00:55:32;;;;;;;;;31.75;30.25;;;;;26.18;66.48;99353.81;4950119;28;9494;-72
2021/03/04 00:58:01;;;;;;;;;35.00;29.67;;;;;26.16;67.70;99354.16;4958354;28;10771;-71
2021/03/04 01:00:30;;;;;;;;;26.33;23.33;;;;;26.24;68.21;99357.78;4954908;28;9480;-71
2021/03/04 01:02:59;;;;;;;;;29.00;26.67;;;;;26.27;67.39;99363.28;4949346;28;9098;-72
2021/03/04 01:05:28;;;;;;;;;9.00;7.00;;;;;26.32;68.41;99371.13;4950992;28;9328;-71
2021/03/04 01:07:56;;;;;;;;;20.00;20.00;;;;;26.31;68.17;99368.75;4968254;28;9422;-71
2021/03/04 01:10:37;;;;;;;;;26.00;24.67;;;;;26.32;64.94;99364.94;4952174;28;9021;-70
2021/03/04 01:13:06;;;;;;;;;25.00;23.67;;;;;26.28;64.77;99367.53;4962555;28;9272;-70
2021/03/04 01:15:34;;;;;;;;;19.67;18.00;;;;;26.30;64.83;99373.38;4961938;28;9281;-72
2021/03/04 01:18:05;;;;;;;;;33.00;23.00;;;;;26.33;66.95;99380.03;4953412;28;9217;-71
2021/03/04 01:20:35;;;;;;;;;25.00;23.67;;;;;26.32;65.84;99375.75;4952225;28;9043;-71
2021/03/04 01:23:03;;;;;;;;;22.00;21.33;;;;;26.31;64.53;99380.38;4948593;28;9224;-71
2021/03/04 01:25:31;;;;;;;;;22.33;20.67;;;;;26.32;64.71;99383.88;4948812;28;9019;-69
2021/03/04 01:28:00;;;;;;;;;26.00;20.33;;;;;26.33;63.78;99382.75;4932903;29;9033;-69
2021/03/04 01:30:33;;;;;;;;;20.67;15.67;;;;;26.34;63.23;99397.81;4935083;29;9819;-68
2021/03/04 01:33:13;;;;;;;;;17.33;17.33;;;;;26.34;63.63;99389.72;4935855;29;9283;-71
2021/03/04 01:35:42;;;;;;;;;26.67;22.00;;;;;26.27;64.69;99392.25;4945812;28;9038;-70
2021/03/04 01:38:12;;;;;;;;;22.33;20.00;;;;;26.28;64.13;99391.09;4936777;28;9201;-71
2021/03/04 01:40:41;;;;;;;;;25.67;23.67;;;;;26.33;63.35;99398.97;4952549;28;9210;-72
2021/03/04 01:43:09;;;;;;;;;28.33;25.67;;;;;26.31;63.67;99382.28;4955086;28;9183;-71
2021/03/04 01:45:38;;;;;;;;;28.33;26.33;;;;;26.34;63.93;99395.13;4929503;28;9286;-70
2021/03/04 01:48:07;;;;;;;;;32.00;26.67;;;;;26.30;63.63;99389.59;4931407;29;9343;-70
2021/03/04 01:50:36;;;;;;;;;41.50;31.75;;;;;26.27;63.51;99395.72;4934330;29;9281;-72
2021/03/04 01:53:04;;;;;;;;;30.67;27.33;;;;;26.29;63.86;99403.50;4934554;29;9788;-69
2021/03/04 01:55:34;;;;;;;;;31.25;28.00;;;;;26.28;63.72;99399.22;4939890;29;9144;-69
2021/03/04 01:58:03;;;;;;;;;33.50;29.75;;;;;26.26;64.39;99398.78;4943546;28;9662;-70
2021/03/04 02:00:31;;;;;;;;;34.25;30.00;;;;;26.28;64.23;99402.72;4947433;28;9649;-71
2021/03/04 02:03:00;;;;;;;;;32.00;29.50;;;;;26.32;65.08;99411.72;4941744;28;9828;-69
2021/03/04 02:05:28;;;;;;;;;34.75;32.25;;;;;26.36;65.36;99409.06;4945589;28;9734;-69
2021/03/04 02:08:12;;;;;;;;;27.50;25.50;;;;;26.41;64.73;99416.91;4951688;28;9576;-71
2021/03/04 02:10:58;;;;;;;;;34.33;30.00;;;;;26.49;65.38;99431.38;4957694;28;9565;-70
2021/03/04 02:13:46;;;;;;;;;30.00;27.00;;;;;26.56;63.78;99426.09;4956538;28;9654;-69
2021/03/04 02:16:31;;;;;;;;;31.25;27.25;;;;;26.56;65.50;99426.88;4948861;28;9299;-69
2021/03/04 02:19:38;;;;;;;;;32.00;29.50;;;;;26.64;64.27;99423.16;4954880;28;9486;-70
2021/03/04 02:22:18;;;;;;;;;23.67;21.67;;;;;26.70;63.80;99431.00;4961957;28;9537;-73
2021/03/04 02:25:06;;;;;;;;;29.67;25.67;;;;;26.73;63.55;99427.59;4961592;28;9267;-70
2021/03/04 02:27:37;;;;;;;;;22.33;21.67;;;;;26.69;63.16;99411.28;4958232;28;9355;-73
2021/03/04 02:30:13;;;;;;;;;30.33;24.33;;;;;26.72;62.99;99420.59;4958440;28;9093;-72
2021/03/04 02:33:07;;;;;;;;;25.00;21.67;;;;;26.73;63.24;99417.53;4960887;28;9241;-70
2021/03/04 02:35:37;;;;;;;;;28.67;22.33;;;;;26.73;63.61;99416.75;4960641;28;9188;-71
2021/03/04 02:38:10;;;;;;;;;25.33;24.00;;;;;26.65;63.55;99407.72;4958927;28;9328;-71
2021/03/04 02:40:41;;;;;;;;;31.50;28.25;;;;;26.72;63.40;99410.56;4961738;28;9939;-71
2021/03/04 02:43:14;;;;;;;;;37.00;33.00;;;;;26.85;63.23;99424.72;4959565;28;9817;-71
2021/03/04 02:45:44;;;;;;;;;30.75;30.00;;;;;26.88;63.31;99421.28;4962111;28;9914;-72
2021/03/04 02:48:17;;;;;;;;;32.00;29.33;;;;;26.94;63.06;99425.28;4959980;28;9409;-71
2021/03/04 02:50:50;;;;;;;;;29.00;25.33;;;;;27.00;63.14;99428.50;4952827;28;9432;-72
2021/03/04 02:53:19;;;;;;;;;27.33;25.67;;;;;27.02;63.20;99432.41;4952619;28;9316;-72
2021/03/04 02:55:50;;;;;;;;;20.67;20.00;;;;;27.01;62.99;99414.59;4952854;28;9429;-72
2021/03/04 02:58:20;;;;;;;;;31.33;27.33;;;;;27.08;63.00;99422.84;4949571;28;9365;-73
2021/03/04 03:00:49;;;;;;;;;32.00;25.67;;;;;27.08;63.04;99414.72;4945014;28;9329;-70
2021/03/04 03:03:18;;;;;;;;;22.67;20.00;;;;;27.15;63.04;99424.91;4941976;28;9174;-73
2021/03/04 03:05:48;;;;;;;;;25.67;22.00;;;;;27.19;62.80;99421.13;4941501;28;9314;-70
2021/03/04 03:08:19;;;;;;;;;29.67;27.67;;;;;27.22;63.17;99414.97;4943870;28;9209;-69
2021/03/04 03:11:01;;;;;;;;;21.33;18.67;;;;;27.26;62.65;99418.53;4939403;28;9026;-69
2021/03/04 03:13:55;;;;;;;;;25.33;25.33;;;;;27.30;62.38;99415.88;4934778;29;9023;-69
2021/03/04 03:16:26;;;;;;;;;24.00;21.25;;;;;27.33;62.42;99414.34;4942414;28;9755;-69
2021/03/04 03:18:57;;;;;;;;;22.67;20.33;;;;;27.35;62.29;99414.78;4944512;28;8821;-68
2021/03/04 03:21:25;;;;;;;;;29.00;21.00;;;;;27.31;62.35;99403.88;4944002;28;9190;-69
2021/03/04 03:23:54;;;;;;;;;21.67;21.67;;;;;27.32;62.31;99404.66;4942992;28;9081;-70
2021/03/04 03:26:22;;;;;;;;;23.25;20.25;;;;;27.37;62.54;99413.25;4941813;29;9038;-69
2021/03/04 03:28:51;;;;;;;;;19.00;18.50;;;;;27.36;63.12;99410.91;4944334;29;8870;-73
2021/03/04 03:31:22;;;;;;;;;23.67;21.67;;;;;27.41;62.30;99408.69;4942650;29;8847;-72
2021/03/04 03:33:52;;;;;;;;;26.75;23.25;;;;;27.43;62.47;99402.91;4942553;28;8962;-70
2021/03/04 03:36:22;;;;;;;;;49.50;40.50;;;;;27.46;62.77;99399.47;4943281;28;8840;-70
2021/03/04 03:38:51;;;;;;;;;25.67;21.67;;;;;27.47;62.77;99384.78;4944673;29;10465;-70
2021/03/04 03:41:20;;;;;;;;;36.33;31.00;;;;;27.61;62.79;99395.88;4943487;28;9097;-70
2021/03/04 03:43:50;;;;;;;;;27.00;25.33;;;;;27.68;61.89;99387.84;4946342;28;9262;-69
2021/03/04 03:46:19;;;;;;;;;27.00;22.25;;;;;27.74;62.48;99380.97;4947103;28;8933;-69
2021/03/04 03:48:50;;;;;;;;;19.50;19.50;;;;;27.80;62.12;99393.06;4948080;28;9589;-68
2021/03/04 03:51:19;;;;;;;;;23.25;20.50;;;;;27.86;62.00;99385.38;4947013;28;8867;-68
2021/03/04 03:53:47;;;;;;;;;20.25;16.25;;;;;27.85;62.14;99373.75;4946254;28;8856;-68
2021/03/04 03:56:16;;;;;;;;;21.50;17.25;;;;;27.98;61.63;99376.25;4946433;28;8846;-68
2021/03/04 03:58:45;;;;;;;;;21.00;21.00;;;;;27.97;61.23;99364.63;4946499;28;8852;-69
2021/03/04 04:01:14;;;;;;;;;20.25;19.00;;;;;27.93;61.00;99358.38;4947180;28;8843;-69
2021/03/04 04:03:43;;;;;;;;;18.75;18.50;;;;;28.07;61.38;99363.97;4945142;28;8828;-69
2021/03/04 04:06:12;;;;;;;;;13.00;12.75;;;;;28.11;61.16;99358.59;4949905;28;8847;-69
2021/03/04 04:08:41;;;;;;;;;19.00;19.00;;;;;28.14;60.93;99352.44;4973034;28;8837;-69
2021/03/04 04:11:10;;;;;;;;;22.25;22.25;;;;;28.16;60.94;99350.13;4954674;28;8843;-69
2021/03/04 04:13:38;;;;;;;;;24.75;24.75;;;;;28.23;61.06;99345.59;4962145;28;8868;-69
2021/03/04 04:16:07;;;;;;;;;84.50;74.50;;;;;28.29;61.15;99339.84;4961797;28;8856;-70
2021/03/04 04:18:36;;;;;;;;;29.33;29.33;;;;;28.29;61.12;99332.50;4959791;28;11592;-70
2021/03/04 04:21:05;;;;;;;;;23.50;21.75;;;;;28.33;60.65;99327.88;4949774;28;9339;-70
2021/03/04 04:23:35;;;;;;;;;19.75;18.75;;;;;28.35;60.76;99322.88;4948939;28;8880;-70
2021/03/04 04:26:03;;;;;;;;;19.75;19.00;;;;;28.38;60.76;99308.56;4949222;28;8867;-70
2021/03/04 04:28:32;;;;;;;;;18.00;18.00;;;;;28.41;60.60;99309.75;4950022;28;8975;-70
2021/03/04 04:31:01;;;;;;;;;20.50;20.50;;;;;28.46;60.56;99306.69;4950730;28;9000;-69
2021/03/04 04:33:30;;;;;;;;;21.50;20.25;;;;;28.48;60.51;99305.19;4948591;28;8860;-70
2021/03/04 04:35:59;;;;;;;;;13.25;13.25;;;;;28.55;60.52;99299.81;4953450;28;8855;-69
2021/03/04 04:38:27;;;;;;;;;18.75;18.75;;;;;28.59;60.06;99283.56;4946739;28;9569;-70
2021/03/04 04:40:56;;;;;;;;;16.50;16.50;;;;;28.73;59.45;99280.94;4959834;28;8846;-69
2021/03/04 04:43:24;;;;;;;;;13.75;13.75;;;;;28.87;60.04;99280.31;4959187;28;8881;-69
2021/03/04 04:45:53;;;;;;;;;18.50;18.50;;;;;28.99;59.75;99282.75;4964872;28;8833;-69
2021/03/04 04:48:22;;;;;;;;;17.50;17.50;;;;;29.06;59.89;99276.59;4965489;28;8844;-69
2021/03/04 04:51:11;;;;;;;;;17.00;16.25;;;;;29.09;59.41;99276.63;4963998;28;8852;-69
2021/03/04 04:53:41;;;;;;;;;19.75;19.75;;;;;29.12;58.15;99281.28;4959345;28;8856;-69
2021/03/04 04:56:10;;;;;;;;;17.25;17.25;;;;;29.17;59.10;99272.78;4962868;28;8826;-69
2021/03/04 04:58:39;;;;;;;;;15.25;15.25;;;;;29.19;59.16;99272.41;4957008;28;8964;-69
2021/03/04 05:01:07;;;;;;;;;4.50;4.50;;;;;29.20;58.54;99266.59;4955072;28;9637;-70
2021/03/04 05:03:36;;;;;;;;;12.50;12.50;;;;;29.21;58.26;99254.56;4946762;28;9629;-71
2021/03/04 05:06:04;;;;;;;;;13.00;13.00;;;;;29.21;57.86;99245.66;4946261;28;8862;-71
2021/03/04 05:08:33;;;;;;;;;13.00;13.00;;;;;29.32;58.90;99243.00;4944745;28;8869;-71
2021/03/04 05:11:01;;;;;;;;;15.50;15.50;;;;;29.37;58.08;99235.25;4947134;28;8945;-71
2021/03/04 05:13:30;;;;;;;;;15.00;15.00;;;;;29.37;58.05;99229.03;4944363;28;8884;-71
2021/03/04 05:15:58;;;;;;;;;17.25;16.00;;;;;29.48;58.33;99227.19;4947237;28;8901;-72
2021/03/04 05:18:27;;;;;;;;;14.75;14.75;;;;;29.54;57.47;99231.88;4961221;28;8872;-71
2021/03/04 05:20:56;;;;;;;;;14.00;14.00;;;;;29.60;57.70;99220.66;4954695;28;8974;-71
2021/03/04 05:23:24;;;;;;;;;10.25;10.25;;;;;29.74;56.64;99217.97;4957363;28;8982;-71
2021/03/04 05:25:53;;;;;;;;;13.75;13.75;;;;;29.84;57.86;99203.63;4959501;28;8860;-71
2021/03/04 05:28:21;;;;;;;;;16.00;16.00;;;;;29.95;56.99;99198.19;4956480;28;8829;-72
2021/03/04 05:30:52;;;;;;;;;12.25;12.25;;;;;30.05;56.42;99208.34;4959418;28;8863;-71
2021/03/04 05:33:21;;;;;;;;;13.25;12.75;;;;;30.13;55.26;99204.50;4945747;28;9644;-71
2021/03/04 05:35:49;;;;;;;;;13.75;13.75;;;;;30.19;56.99;99190.13;4957234;28;8856;-72
2021/03/04 05:38:18;;;;;;;;;14.25;14.25;;;;;30.22;57.02;99183.13;4964908;28;8873;-72
2021/03/04 05:40:46;;;;;;;;;11.25;11.25;;;;;30.18;55.49;99174.94;4965147;28;8863;-71
2021/03/04 05:43:15;;;;;;;;;19.50;18.00;;;;;30.20;56.10;99177.28;4958660;28;8893;-71
2021/03/04 05:45:48;;;;;;;;;22.25;22.25;;;;;30.14;54.35;99171.44;4945183;28;8885;-71
2021/03/04 05:48:20;;;;;;;;;14.00;14.00;;;;;30.06;54.87;99161.72;4952294;28;8852;-72
2021/03/04 05:50:55;;;;;;;;;12.50;12.50;;;;;30.07;55.83;99163.28;4953266;28;8915;-71
2021/03/04 05:53:25;;;;;;;;;14.25;14.25;;;;;30.07;56.39;99157.06;4963583;28;8865;-71
2021/03/04 05:55:54;;;;;;;;;13.50;13.50;;;;;30.05;56.00;99162.88;4942758;28;8883;-72
2021/03/04 05:58:24;;;;;;;;;15.75;15.75;;;;;30.01;55.84;99150.44;4946565;28;8840;-75
2021/03/04 06:00:58;;;;;;;;;10.75;10.75;;;;;29.98;54.80;99137.59;4955117;28;8905;-70
2021/03/04 06:03:27;;;;;;;;;12.25;12.25;;;;;29.94;54.69;99128.66;4959074;28;8864;-70
2021/03/04 06:05:56;;;;;;;;;13.75;12.00;;;;;29.92;55.61;99128.25;4953534;28;8848;-70
2021/03/04 06:08:24;;;;;;;;;10.75;10.75;;;;;29.92;55.64;99126.31;4946744;28;8854;-71
2021/03/04 06:10:53;;;;;;;;;15.25;15.25;;;;;29.91;55.52;99118.53;4951547;28;8864;-74
2021/03/04 06:13:25;;;;;;;;;10.75;10.75;;;;;29.90;55.05;99114.28;4954381;28;8864;-72
2021/03/04 06:15:53;;;;;;;;;9.00;9.00;;;;;29.88;54.66;99103.03;4954448;28;8895;-72
2021/03/04 06:18:25;;;;;;;;;12.75;11.75;;;;;29.92;54.51;99109.22;4966710;28;8842;-78
2021/03/04 06:20:53;;;;;;;;;14.25;14.25;;;;;29.97;56.65;99100.66;4970323;28;8861;-74
2021/03/04 06:23:31;;;;;;;;;16.00;16.00;;;;;29.99;54.99;99106.50;4955253;28;8888;-73
2021/03/04 06:26:00;;;;;;;;;10.75;10.75;;;;;29.99;54.82;99101.06;4956248;28;8856;-75
2021/03/04 06:28:32;;;;;;;;;11.00;11.00;;;;;30.00;54.41;99089.81;4951166;28;8859;-74
2021/03/04 06:31:00;;;;;;;;;11.50;11.25;;;;;30.04;54.15;99078.94;4945608;28;8855;-74
2021/03/04 06:33:36;;;;;;;;;12.00;12.00;;;;;30.09;54.44;99070.38;4936673;29;8847;-71
2021/03/04 06:36:16;;;;;;;;;15.25;13.25;;;;;30.11;54.81;99060.69;4951241;28;8859;-71
2021/03/04 06:38:56;;;;;;;;;14.75;12.75;;;;;30.29;55.08;99066.09;4944817;28;8862;-72
2021/03/04 06:41:24;;;;;;;;;11.50;11.50;;;;;30.42;54.55;99059.09;4958964;28;8971;-71
2021/03/04 06:44:03;;;;;;;;;13.00;13.00;;;;;30.54;53.80;99051.69;4961121;28;8867;-70
2021/03/04 06:46:47;;;;;;;;;16.00;14.50;;;;;30.70;53.94;99043.88;4952187;28;8998;-70
2021/03/04 06:49:16;;;;;;;;;11.75;11.75;;;;;30.76;54.17;99042.31;4952632;28;8864;-70
2021/03/04 06:51:45;;;;;;;;;12.75;12.75;;;;;30.85;54.56;99050.84;4944045;28;8856;-73
2021/03/04 06:54:24;;;;;;;;;9.50;9.50;;;;;30.83;54.52;99045.78;4950238;28;8852;-70
2021/03/04 06:56:52;;;;;;;;;15.25;14.25;;;;;30.81;54.88;99036.44;4950573;28;8864;-70
2021/03/04 06:59:21;;;;;;;;;15.50;15.50;;;;;30.82;53.29;99038.00;4955185;28;8848;-72
2021/03/04 07:01:49;;;;;;;;;14.25;14.25;;;;;30.89;53.52;99024.34;4961272;28;9588;-72
2021/03/04 07:04:18;;;;;;;;;21.75;20.25;;;;;30.99;52.22;99025.47;4961206;28;8893;-72
2021/03/04 07:06:47;;;;;;;;;21.75;21.25;;;;;31.06;51.85;99025.44;4952157;28;8840;-73
2021/03/04 07:09:16;;;;;;;;;16.75;16.75;;;;;31.06;52.21;99018.06;4956051;28;8852;-72
2021/03/04 07:11:46;;;;;;;;;19.00;19.00;;;;;31.04;52.31;99009.50;4949505;28;8947;-78
2021/03/04 07:14:15;;;;;;;;;13.25;13.25;;;;;31.08;52.25;99018.44;4942544;28;8938;-73
2021/03/04 07:16:44;;;;;;;;;18.50;18.50;;;;;31.07;52.55;99005.97;4951425;28;8857;-71
2021/03/04 07:19:16;;;;;;;;;11.25;11.25;;;;;31.14;52.59;99002.47;4958123;28;8877;-71
2021/03/04 07:21:49;;;;;;;;;12.25;12.25;;;;;31.11;52.53;98998.56;4956915;28;8882;-71
2021/03/04 07:24:18;;;;;;;;;13.00;13.00;;;;;31.12;50.71;99002.06;4957406;28;8866;-72
2021/03/04 07:26:46;;;;;;;;;10.50;10.50;;;;;31.05;52.02;98991.97;4959237;28;8849;-74
2021/03/04 07:29:15;;;;;;;;;7.25;7.25;;;;;31.07;54.25;98991.59;4972983;28;8844;-76
2021/03/04 07:31:46;;;;;;;;;11.75;11.75;;;;;31.00;54.36;98981.50;4955591;28;8859;-73
2021/03/04 07:34:17;;;;;;;;;11.25;11.25;;;;;30.97;53.99;98985.00;4960218;28;8826;-73
2021/03/04 07:36:49;;;;;;;;;12.25;12.25;;;;;30.84;53.42;98970.28;4954432;28;8882;-73
2021/03/04 07:39:32;;;;;;;;;10.25;10.25;;;;;30.95;52.01;98970.25;4953848;28;8890;-73
2021/03/04 07:42:20;;;;;;;;;11.00;11.00;;;;;31.00;53.67;98961.66;4956395;28;9013;-74
2021/03/04 07:44:49;;;;;;;;;15.50;14.50;;;;;31.05;53.90;98958.50;4958198;28;8860;-73
2021/03/04 07:47:26;;;;;;;;;10.00;10.00;;;;;31.10;53.94;98956.13;4958025;28;8876;-73
2021/03/04 07:49:56;;;;;;;;;11.50;11.50;;;;;31.15;53.23;98960.41;4956780;28;9692;-72
2021/03/04 07:52:26;;;;;;;;;12.25;12.25;;;;;31.13;51.04;98946.38;4956455;28;8864;-72
2021/03/04 07:55:07;;;;;;;;;11.50;11.50;;;;;31.18;52.37;98947.94;4958545;28;8865;-73
2021/03/04 07:57:44;;;;;;;;;14.25;13.75;;;;;31.29;51.39;98943.16;4958660;28;8887;-70
2021/03/04 08:00:13;;;;;;;;;11.75;11.75;;;;;31.42;50.73;98931.38;4957414;28;8891;-73
2021/03/04 08:02:43;;;;;;;;;10.75;10.75;;;;;31.57;50.73;98931.28;4955751;28;8855;-72
2021/03/04 08:05:31;;;;;;;;;8.75;8.75;;;;;31.72;50.45;98924.53;4952596;28;8860;-73
2021/03/04 08:08:15;;;;;;;;;8.50;8.50;;;;;31.85;50.44;98928.31;4951688;28;8915;-72
2021/03/04 08:10:54;;;;;;;;;12.50;12.50;;;;;31.94;49.98;98925.13;4944382;28;8861;-74
2021/03/04 08:13:32;;;;;;;;;11.25;11.25;;;;;32.13;49.56;98927.25;4953628;28;8861;-71
2021/03/04 08:16:01;;;;;;;;;38.25;34.00;;;;;32.25;49.09;98918.56;4954112;28;8858;-72
2021/03/04 08:18:30;;;;;;;;;14.75;13.00;;;;;32.34;50.35;98915.34;4959296;28;8961;-73
2021/03/04 08:21:06;;;;;;;;;9.50;9.50;;;;;32.37;51.73;98900.88;4957627;28;8885;-75
2021/03/04 08:23:49;;;;;;;;;11.25;11.25;;;;;32.34;52.54;98913.38;4960556;28;8846;-73
2021/03/04 08:26:27;;;;;;;;;12.25;12.25;;;;;32.22;52.59;98911.16;4947078;28;8844;-73
2021/03/04 08:29:10;;;;;;;;;12.00;12.00;;;;;32.07;49.14;98913.28;4959121;28;8857;-74
2021/03/04 08:31:48;;;;;;;;;10.00;10.00;;;;;32.01;49.11;98911.41;4963259;28;9641;-71
2021/03/04 08:34:17;;;;;;;;;12.25;12.25;;;;;31.98;49.01;98893.88;4954558;28;8863;-73
2021/03/04 08:36:53;;;;;;;;;0.50;0.00;;;;;32.14;51.45;98900.72;4949874;28;8878;-72
2021/03/04 08:39:23;;;;;;;;;12.50;11.50;;;;;32.04;50.12;98888.75;4935771;29;8912;-74
2021/03/04 08:42:02;;;;;;;;;9.25;9.25;;;;;32.15;50.60;98896.81;4937459;28;8868;-74
2021/03/04 08:44:30;;;;;;;;;14.50;13.00;;;;;32.14;50.41;98890.59;4961122;28;8986;-71
2021/03/04 08:47:00;;;;;;;;;12.00;12.00;;;;;32.14;52.37;98879.66;4962919;28;8856;-74
2021/03/04 08:49:30;;;;;;;;;11.50;10.75;;;;;32.08;49.83;98890.25;4926424;28;8864;-73
2021/03/04 08:51:58;;;;;;;;;10.00;10.00;;;;;31.96;52.32;98877.13;4962445;28;8884;-72
2021/03/04 08:54:29;;;;;;;;;10.00;10.00;;;;;31.84;51.88;98874.16;4961876;28;8975;-72
2021/03/04 08:57:05;;;;;;;;;10.25;10.25;;;;;31.75;51.01;98861.78;4958299;28;8857;-72
2021/03/04 08:59:34;;;;;;;;;9.50;9.50;;;;;31.79;49.99;98884.34;4952922;28;8930;-72
2021/03/04 09:02:14;;;;;;;;;10.00;10.00;;;;;31.75;49.59;98878.13;4956181;28;8864;-72
2021/03/04 09:04:46;;;;;;;;;7.50;7.50;;;;;31.75;50.69;98880.88;4960805;28;8845;-72
2021/03/04 09:07:28;;;;;;;;;10.75;10.75;;;;;31.71;51.84;98879.34;4956486;28;8856;-72
2021/03/04 09:10:03;;;;;;;;;11.00;11.00;;;;;31.62;52.21;98876.28;4961879;28;8872;-72
2021/03/04 09:12:39;;;;;;;;;11.50;11.50;;;;;31.60;49.60;98873.97;4955218;28;8877;-74
2021/03/04 09:15:16;;;;;;;;;13.00;13.00;;;;;31.58;52.03;98876.34;4959955;28;8884;-75
2021/03/04 09:17:46;;;;;;;;;12.75;12.75;;;;;31.53;52.24;98873.28;4958098;28;8899;-72
2021/03/04 09:20:16;;;;;;;;;14.00;13.50;;;;;31.52;51.94;98867.03;4957919;28;8970;-73
2021/03/04 09:22:45;;;;;;;;;12.50;12.50;;;;;31.51;52.32;98870.94;4961315;28;9698;-75
2021/03/04 09:25:20;;;;;;;;;12.25;12.25;;;;;31.37;52.15;98865.63;4962155;28;8987;-73
2021/03/04 09:27:50;;;;;;;;;11.00;11.00;;;;;31.36;51.49;98878.47;4959131;28;9620;-74
2021/03/04 09:30:34;;;;;;;;;10.75;10.75;;;;;31.32;49.70;98874.22;4956138;28;9026;-73
2021/03/04 09:33:03;;;;;;;;;13.50;13.50;;;;;31.34;51.58;98880.81;4959731;28;8986;-73
2021/03/04 09:35:31;;;;;;;;;11.25;11.25;;;;;31.38;50.95;98887.03;4950241;28;9015;-72
2021/03/04 09:38:07;;;;;;;;;11.25;11.00;;;;;31.37;50.36;98876.53;4958581;28;8864;-71
2021/03/04 09:40:36;;;;;;;;;11.75;11.75;;;;;31.43;51.34;98877.63;4956020;28;9633;-72
2021/03/04 09:43:14;;;;;;;;;12.25;12.25;;;;;31.42;51.82;98876.09;4959296;28;8849;-73
2021/03/04 09:45:51;;;;;;;;;11.75;11.75;;;;;31.38;51.38;98878.84;4962071;28;8973;-73
2021/03/04 09:48:33;;;;;;;;;10.75;10.75;;;;;31.32;51.49;98876.94;4937740;28;8878;-71
2021/03/04 09:51:02;;;;;;;;;10.00;10.00;;;;;31.27;50.69;98880.09;4933081;28;9312;-71
2021/03/04 09:53:30;;;;;;;;;11.00;11.00;;;;;31.25;49.74;98882.47;4950772;28;8938;-72
2021/03/04 09:56:04;;;;;;;;;11.75;11.75;;;;;31.20;51.43;98874.75;4953079;28;9673;-74
2021/03/04 09:58:32;;;;;;;;;12.50;12.50;;;;;31.22;51.76;98889.50;4953643;28;8863;-70
2021/03/04 10:01:01;;;;;;;;;10.25;10.25;;;;;31.19;49.86;98898.50;4944928;28;8875;-69
2021/03/04 10:03:42;;;;;;;;;11.00;10.50;;;;;31.14;50.13;98886.06;4949644;28;8979;-70
2021/03/04 10:06:21;;;;;;;;;12.00;12.00;;;;;31.23;50.15;98901.94;4955472;28;8935;-70
2021/03/04 10:08:55;;;;;;;;;10.00;10.00;;;;;31.27;50.25;98891.78;4952694;28;9556;-69
2021/03/04 10:11:25;;;;;;;;;10.00;10.00;;;;;31.35;50.22;98889.78;4953945;28;8863;-70
2021/03/04 10:13:53;;;;;;;;;10.00;10.00;;;;;31.31;50.23;98884.34;4953398;28;9569;-70
2021/03/04 10:16:22;;;;;;;;;11.75;11.75;;;;;31.33;51.07;98889.41;4955067;28;8978;-70
2021/03/04 10:18:51;;;;;;;;;10.75;10.75;;;;;31.28;50.95;98887.09;4957873;28;8848;-69
2021/03/04 10:21:21;;;;;;;;;12.75;12.75;;;;;31.24;49.55;98892.59;4953049;28;8864;-70
2021/03/04 10:23:49;;;;;;;;;11.50;11.50;;;;;31.21;49.84;98882.50;4941035;28;8856;-70
2021/03/04 10:26:19;;;;;;;;;10.00;10.00;;;;;31.18;51.04;98879.81;4954821;28;8871;-70
2021/03/04 10:28:47;;;;;;;;;13.25;13.25;;;;;31.17;50.75;98886.44;4953399;28;8863;-70
2021/03/04 10:31:16;;;;;;;;;10.50;10.50;;;;;31.15;50.54;98892.28;4954548;28;8848;-71
2021/03/04 10:33:45;;;;;;;;;10.75;10.75;;;;;31.11;50.08;98889.56;4948601;28;8839;-70
2021/03/04 10:36:13;;;;;;;;;12.75;12.75;;;;;31.08;50.88;98889.59;4954809;28;8852;-71
2021/03/04 10:38:42;;;;;;;;;13.00;13.00;;;;;31.04;50.97;98889.63;4954387;28;8858;-70
2021/03/04 10:41:10;;;;;;;;;6.00;6.00;;;;;31.02;50.90;98888.47;4954453;28;8856;-70
2021/03/04 10:43:38;;;;;;;;;12.25;12.25;;;;;30.96;50.72;98884.63;4943403;28;8938;-70
2021/03/04 10:46:08;;;;;;;;;10.50;10.50;;;;;30.91;50.97;98887.75;4934873;29;8855;-70
2021/03/04 10:48:36;;;;;;;;;12.50;12.50;;;;;30.85;50.64;98884.69;4934994;29;8850;-71
2021/03/04 10:51:05;;;;;;;;;11.00;11.00;;;;;30.81;50.80;98884.72;4937153;28;8860;-71
2021/03/04 10:53:33;;;;;;;;;12.00;12.00;;;;;30.78;51.24;98890.94;4963784;28;8944;-71
2021/03/04 10:56:01;;;;;;;;;13.00;13.00;;;;;30.73;50.96;98882.44;4958941;28;8844;-77
2021/03/04 10:58:30;;;;;;;;;11.75;11.75;;;;;30.60;51.14;98875.88;4959488;28;8852;-74
2021/03/04 11:00:58;;;;;;;;;13.50;13.50;;;;;30.63;51.73;98886.75;4957342;28;8851;-74
2021/03/04 11:03:28;;;;;;;;;10.50;10.50;;;;;30.57;51.49;98887.53;4953170;28;8886;-75
2021/03/04 11:05:57;;;;;;;;;13.00;13.00;;;;;30.46;51.50;98876.69;4953122;28;8878;-75
2021/03/04 11:08:25;;;;;;;;;13.75;13.75;;;;;30.46;51.30;98884.88;4959820;28;8883;-71
2021/03/04 11:10:56;;;;;;;;;10.00;9.75;;;;;30.40;51.41;98887.22;4961156;28;8996;-71
2021/03/04 11:13:24;;;;;;;;;11.50;11.50;;;;;30.37;51.58;98882.56;4961986;28;8840;-71
2021/03/04 11:15:53;;;;;;;;;14.00;14.00;;;;;30.29;51.81;98883.00;4961379;28;8849;-70
2021/03/04 11:18:22;;;;;;;;;12.50;12.50;;;;;30.27;51.71;98882.63;4962425;28;8968;-72
2021/03/04 11:20:51;;;;;;;;;14.25;14.25;;;;;30.28;52.21;98889.59;4958499;28;8874;-69
2021/03/04 11:23:20;;;;;;;;;15.50;15.00;;;;;30.20;52.15;98883.41;4960414;28;8865;-70
2021/03/04 11:26:02;;;;;;;;;17.25;17.25;;;;;30.22;51.85;98891.19;4956717;28;8975;-69
2021/03/04 11:28:31;;;;;;;;;14.50;14.50;;;;;30.11;51.54;98877.63;4950092;28;8864;-69
2021/03/04 11:30:59;;;;;;;;;15.50;15.50;;;;;30.18;51.13;98889.25;4961026;28;8840;-70
2021/03/04 11:33:28;;;;;;;;;18.00;18.00;;;;;30.19;52.27;98884.59;4959009;28;8832;-70
2021/03/04 11:35:56;;;;;;;;;12.75;12.75;;;;;30.15;51.49;98876.44;4957033;28;8954;-70
2021/03/04 11:38:25;;;;;;;;;15.25;14.00;;;;;30.18;51.05;98883.03;4956728;28;8948;-69
2021/03/04 11:40:53;;;;;;;;;14.75;14.75;;;;;30.17;51.71;98893.16;4955674;28;8964;-70
2021/03/04 11:43:21;;;;;;;;;13.00;13.00;;;;;30.14;51.32;98891.22;4957489;28;8857;-70
2021/03/04 11:45:50;;;;;;;;;15.00;15.00;;;;;30.12;52.14;98890.06;4962272;28;8853;-70
2021/03/04 11:48:19;;;;;;;;;13.00;12.00;;;;;30.07;51.03;98896.66;4960308;28;9593;-69